AAL134 KLAX-EGLL
Flight info
| Callsign | AAL134 |
|---|---|
| Flight time | N/A |
| Altitude | 33000 |
| Route | DOTSS2 CNERY DCT BLH DCT WOBUG DCT EWM DCT SUMMY DCT BGS J66 FUZ DCT TXK DCT GAGLE DCT RUTTH DCT LORNN DCT WILUM DCT DIXXY DCT HAFNR DCT AGARD DCT CYN DCT DUNEE DCT ACK DCT KANNI N97B SUPRY/M082F330 DCT 46N050W 48N040W 50N030W 52N020W DCT LIMRI/N0471F330 DCT XETBO DCT UNBEG DCT LIFFY UL975 MALUD Q38 NUGRA |
| Aircraft | B77W/H-SDE1E2E3FGHIJ2J3J4J5M1RWXY/LB1D1 |
Departure
| Time | 2026-05-05 04:20 |
|---|---|
| Airport | Los Angeles International Airport (KLAX) |
Arrival
| Time | N/A |
|---|---|
| Airport | London Heathrow Airport (EGLL) |
| Time | Latitude | Longitude | Altitude | Speed | Heading |
|---|---|---|---|---|---|
| 2026-05-05 03:40 | 33.94162 | -118.40763 | 97 ft | 0 kts | 84° |
| 2026-05-05 03:53 | 33.94162 | -118.40765 | 97 ft | 2 kts | 84° |
| 2026-05-05 03:53 | 33.94159 | -118.40792 | 97 ft | 3 kts | 85° |
| 2026-05-05 03:54 | 33.94158 | -118.40820 | 97 ft | 3 kts | 97° |
| 2026-05-05 03:54 | 33.94164 | -118.40843 | 96 ft | 3 kts | 145° |
| 2026-05-05 03:54 | 33.94170 | -118.40847 | 98 ft | 0 kts | 173° |
| 2026-05-05 03:55 | 33.94170 | -118.40848 | 98 ft | 0 kts | 173° |
| 2026-05-05 04:01 | 33.94169 | -118.40847 | 90 ft | 1 kts | 173° |
| 2026-05-05 04:02 | 33.94142 | -118.40843 | 99 ft | 7 kts | 173° |
| 2026-05-05 04:02 | 33.94079 | -118.40834 | 98 ft | 12 kts | 173° |
| 2026-05-05 04:02 | 33.93988 | -118.40820 | 99 ft | 13 kts | 173° |
| 2026-05-05 04:02 | 33.93900 | -118.40789 | 99 ft | 13 kts | 142° |
| 2026-05-05 04:03 | 33.93831 | -118.40715 | 100 ft | 13 kts | 134° |
| 2026-05-05 04:03 | 33.93817 | -118.40608 | 99 ft | 13 kts | 84° |
| 2026-05-05 04:03 | 33.93827 | -118.40498 | 102 ft | 13 kts | 83° |
| 2026-05-05 04:03 | 33.93838 | -118.40387 | 102 ft | 13 kts | 82° |
| 2026-05-05 04:04 | 33.93851 | -118.40276 | 102 ft | 13 kts | 82° |
| 2026-05-05 04:04 | 33.93862 | -118.40164 | 103 ft | 13 kts | 83° |
| 2026-05-05 04:04 | 33.93873 | -118.40054 | 101 ft | 13 kts | 83° |
| 2026-05-05 04:04 | 33.93884 | -118.39943 | 104 ft | 13 kts | 83° |
| 2026-05-05 04:05 | 33.93895 | -118.39831 | 103 ft | 13 kts | 83° |
| 2026-05-05 04:05 | 33.93906 | -118.39721 | 100 ft | 13 kts | 83° |
| 2026-05-05 04:05 | 33.93917 | -118.39609 | 100 ft | 13 kts | 82° |
| 2026-05-05 04:05 | 33.93929 | -118.39499 | 99 ft | 13 kts | 82° |
| 2026-05-05 04:06 | 33.93941 | -118.39388 | 101 ft | 13 kts | 82° |
| 2026-05-05 04:06 | 33.93953 | -118.39277 | 101 ft | 13 kts | 83° |
| 2026-05-05 04:06 | 33.93964 | -118.39166 | 101 ft | 13 kts | 83° |
| 2026-05-05 04:06 | 33.93975 | -118.39055 | 99 ft | 13 kts | 83° |
| 2026-05-05 04:07 | 33.93986 | -118.38945 | 99 ft | 13 kts | 83° |
| 2026-05-05 04:07 | 33.93997 | -118.38835 | 102 ft | 13 kts | 83° |
| 2026-05-05 04:07 | 33.94009 | -118.38724 | 101 ft | 13 kts | 83° |
| 2026-05-05 04:07 | 33.94021 | -118.38613 | 100 ft | 13 kts | 83° |
| 2026-05-05 04:08 | 33.94033 | -118.38502 | 101 ft | 13 kts | 83° |
| 2026-05-05 04:08 | 33.94044 | -118.38391 | 101 ft | 13 kts | 83° |
| 2026-05-05 04:08 | 33.94056 | -118.38280 | 102 ft | 13 kts | 83° |
| 2026-05-05 04:08 | 33.94067 | -118.38170 | 99 ft | 13 kts | 83° |
| 2026-05-05 04:09 | 33.94077 | -118.38077 | 98 ft | 6 kts | 83° |
| 2026-05-05 04:09 | 33.94078 | -118.38063 | 98 ft | 0 kts | 83° |
| 2026-05-05 04:09 | 33.94078 | -118.38048 | 98 ft | 0 kts | 91° |
| 2026-05-05 04:10 | 33.94073 | -118.38029 | 98 ft | 6 kts | 118° |
| 2026-05-05 04:10 | 33.94012 | -118.38003 | 99 ft | 12 kts | 172° |
| 2026-05-05 04:10 | 33.93989 | -118.38020 | 101 ft | 4 kts | 240° |
| 2026-05-05 04:11 | 33.93985 | -118.38040 | 100 ft | 4 kts | 261° |
| 2026-05-05 04:11 | 33.93977 | -118.38102 | 99 ft | 17 kts | 261° |
| 2026-05-05 04:11 | 33.93949 | -118.38383 | 103 ft | 60 kts | 263° |
| 2026-05-05 04:11 | 33.93864 | -118.39177 | 102 ft | 130 kts | 262° |
| 2026-05-05 04:12 | 33.93742 | -118.40344 | 103 ft | 111 kts | 263° |
| 2026-05-05 04:12 | 33.93692 | -118.40838 | 100 ft | 15 kts | 267° |
| 2026-05-05 04:12 | 33.93745 | -118.40907 | 100 ft | 3 kts | 3° |
| 2026-05-05 04:12 | 33.93785 | -118.40871 | 100 ft | 15 kts | 60° |
| 2026-05-05 04:13 | 33.93805 | -118.40733 | 99 ft | 17 kts | 82° |
| 2026-05-05 04:13 | 33.93820 | -118.40594 | 100 ft | 17 kts | 83° |
| 2026-05-05 04:13 | 33.93833 | -118.40466 | 100 ft | 17 kts | 83° |
| 2026-05-05 04:13 | 33.93846 | -118.40325 | 100 ft | 17 kts | 83° |
| 2026-05-05 04:14 | 33.93860 | -118.40185 | 101 ft | 17 kts | 83° |
| 2026-05-05 04:14 | 33.93874 | -118.40043 | 101 ft | 17 kts | 83° |
| 2026-05-05 04:14 | 33.93889 | -118.39905 | 101 ft | 17 kts | 83° |
| 2026-05-05 04:14 | 33.93903 | -118.39764 | 101 ft | 17 kts | 83° |
| 2026-05-05 04:15 | 33.93918 | -118.39623 | 100 ft | 17 kts | 83° |
| 2026-05-05 04:15 | 33.93933 | -118.39483 | 99 ft | 17 kts | 83° |
| 2026-05-05 04:15 | 33.93947 | -118.39343 | 98 ft | 17 kts | 83° |
| 2026-05-05 04:15 | 33.93962 | -118.39203 | 100 ft | 17 kts | 83° |
| 2026-05-05 04:16 | 33.93976 | -118.39062 | 99 ft | 17 kts | 83° |
| 2026-05-05 04:16 | 33.93990 | -118.38922 | 99 ft | 17 kts | 83° |
| 2026-05-05 04:16 | 33.94004 | -118.38782 | 99 ft | 17 kts | 83° |
| 2026-05-05 04:16 | 33.94018 | -118.38641 | 101 ft | 17 kts | 83° |
| 2026-05-05 04:17 | 33.94032 | -118.38501 | 101 ft | 17 kts | 83° |
| 2026-05-05 04:17 | 33.94046 | -118.38360 | 100 ft | 17 kts | 83° |
| 2026-05-05 04:17 | 33.94061 | -118.38220 | 99 ft | 17 kts | 82° |
| 2026-05-05 04:17 | 33.94074 | -118.38098 | 98 ft | 13 kts | 83° |
| 2026-05-05 04:18 | 33.94071 | -118.38024 | 98 ft | 6 kts | 124° |
| 2026-05-05 04:18 | 33.94032 | -118.38003 | 98 ft | 6 kts | 163° |
| 2026-05-05 04:18 | 33.93995 | -118.38002 | 101 ft | 3 kts | 211° |
| 2026-05-05 04:18 | 33.93987 | -118.38025 | 101 ft | 3 kts | 257° |
| 2026-05-05 04:19 | 33.93984 | -118.38042 | 101 ft | 1 kts | 259° |
| 2026-05-05 04:19 | 33.93956 | -118.38284 | 103 ft | 66 kts | 263° |
| 2026-05-05 04:19 | 33.93869 | -118.39135 | 100 ft | 137 kts | 263° |
| 2026-05-05 04:19 | 33.93727 | -118.40492 | 213 ft | 180 kts | 262° |
| 2026-05-05 04:20 | 33.93618 | -118.41503 | 535 ft | 190 kts | 261° |
| 2026-05-05 04:20 | 33.93429 | -118.43096 | 1127 ft | 195 kts | 262° |
| 2026-05-05 04:20 | 33.93282 | -118.44747 | 1724 ft | 200 kts | 264° |
| 2026-05-05 04:20 | 33.93114 | -118.46433 | 2167 ft | 209 kts | 256° |
| 2026-05-05 04:21 | 33.92357 | -118.48076 | 2104 ft | 243 kts | 224° |
| 2026-05-05 04:21 | 33.91069 | -118.49374 | 2801 ft | 239 kts | 220° |
| 2026-05-05 04:21 | 33.89867 | -118.50765 | 3433 ft | 245 kts | 229° |
| 2026-05-05 04:21 | 33.88749 | -118.52325 | 4111 ft | 247 kts | 231° |
| 2026-05-05 04:22 | 33.87628 | -118.53930 | 4754 ft | 255 kts | 230° |
| 2026-05-05 04:22 | 33.86376 | -118.55434 | 5360 ft | 256 kts | 212° |
| 2026-05-05 04:22 | 33.84678 | -118.56023 | 5889 ft | 265 kts | 179° |
| 2026-05-05 04:22 | 33.82852 | -118.55633 | 6487 ft | 268 kts | 169° |
| 2026-05-05 04:23 | 33.81011 | -118.55131 | 7079 ft | 273 kts | 169° |
| 2026-05-05 04:23 | 33.79174 | -118.54639 | 7773 ft | 273 kts | 169° |
| 2026-05-05 04:23 | 33.77307 | -118.54135 | 8469 ft | 275 kts | 169° |
| 2026-05-05 04:23 | 33.75432 | -118.53628 | 9146 ft | 278 kts | 170° |
| 2026-05-05 04:24 | 33.73545 | -118.53118 | 9799 ft | 280 kts | 170° |
| 2026-05-05 04:24 | 33.71627 | -118.52580 | 10330 ft | 285 kts | 166° |
| 2026-05-05 04:24 | 33.69852 | -118.51380 | 10525 ft | 309 kts | 136° |
| 2026-05-05 04:25 | 33.67957 | -118.46389 | 10835 ft | 352 kts | 110° |
| 2026-05-05 04:25 | 33.67157 | -118.43515 | 11012 ft | 374 kts | 111° |
| 2026-05-05 04:25 | 33.66289 | -118.40508 | 11384 ft | 387 kts | 111° |
| 2026-05-05 04:25 | 33.65381 | -118.37429 | 11958 ft | 395 kts | 111° |
| 2026-05-05 04:26 | 33.64506 | -118.34306 | 12186 ft | 395 kts | 105° |
| 2026-05-05 04:26 | 33.64254 | -118.31082 | 12216 ft | 400 kts | 90° |
| 2026-05-05 04:26 | 33.64321 | -118.27984 | 12193 ft | 404 kts | 90° |
| 2026-05-05 04:26 | 33.64385 | -118.24662 | 12196 ft | 402 kts | 90° |
| 2026-05-05 04:27 | 33.64429 | -118.21318 | 12184 ft | 400 kts | 90° |
| 2026-05-05 04:27 | 33.64453 | -118.18004 | 12191 ft | 399 kts | 91° |
| 2026-05-05 04:27 | 33.64463 | -118.14669 | 12188 ft | 399 kts | 91° |
| 2026-05-05 04:27 | 33.64466 | -118.11343 | 12201 ft | 399 kts | 91° |
| 2026-05-05 04:28 | 33.64465 | -118.08009 | 12193 ft | 399 kts | 91° |
| 2026-05-05 04:28 | 33.64461 | -118.04672 | 12197 ft | 399 kts | 91° |
| 2026-05-05 04:28 | 33.64457 | -118.01337 | 12206 ft | 400 kts | 91° |
| 2026-05-05 04:28 | 33.64452 | -117.98004 | 12206 ft | 400 kts | 91° |
| 2026-05-05 04:29 | 33.64446 | -117.94668 | 12207 ft | 400 kts | 91° |
| 2026-05-05 04:29 | 33.64440 | -117.91322 | 12203 ft | 402 kts | 91° |
| 2026-05-05 04:29 | 33.64433 | -117.87944 | 12744 ft | 407 kts | 91° |
| 2026-05-05 04:29 | 33.64424 | -117.84532 | 13556 ft | 411 kts | 91° |
| 2026-05-05 04:30 | 33.64415 | -117.81080 | 14283 ft | 415 kts | 92° |
| 2026-05-05 04:30 | 33.64163 | -117.77646 | 14847 ft | 414 kts | 105° |
| 2026-05-05 04:30 | 33.63368 | -117.74311 | 15453 ft | 418 kts | 111° |
| 2026-05-05 04:30 | 33.62466 | -117.70981 | 16164 ft | 421 kts | 111° |
| 2026-05-05 04:31 | 33.61565 | -117.67626 | 16904 ft | 424 kts | 111° |
| 2026-05-05 04:31 | 33.60676 | -117.64229 | 17621 ft | 428 kts | 111° |
| 2026-05-05 04:31 | 33.59812 | -117.60841 | 18296 ft | 433 kts | 111° |
| 2026-05-05 04:31 | 33.58943 | -117.57371 | 18872 ft | 437 kts | 110° |
| 2026-05-05 04:32 | 33.58072 | -117.53858 | 19443 ft | 442 kts | 110° |
| 2026-05-05 04:32 | 33.57195 | -117.50313 | 20024 ft | 446 kts | 111° |
| 2026-05-05 04:32 | 33.56308 | -117.46723 | 20558 ft | 451 kts | 111° |
| 2026-05-05 04:32 | 33.55410 | -117.43103 | 21102 ft | 455 kts | 111° |
| 2026-05-05 04:33 | 33.54509 | -117.39484 | 21616 ft | 460 kts | 111° |